sensor_id;sensor_type;location;lat;lon;timestamp;P1;durP1;ratioP1;P2;durP2;ratioP2
75419;SDS011;63998;52.488;13.428;2023-04-09T00:00:36;28.92;;;15.50;;
75419;SDS011;63998;52.488;13.428;2023-04-09T00:03:02;29.30;;;16.50;;
75419;SDS011;63998;52.488;13.428;2023-04-09T00:05:27;28.48;;;15.85;;
75419;SDS011;63998;52.488;13.428;2023-04-09T00:07:52;29.00;;;16.45;;
75419;SDS011;63998;52.488;13.428;2023-04-09T00:10:18;26.97;;;16.03;;
75419;SDS011;63998;52.488;13.428;2023-04-09T00:12:43;30.60;;;16.63;;
75419;SDS011;63998;52.488;13.428;2023-04-09T00:15:14;29.25;;;15.90;;
75419;SDS011;63998;52.488;13.428;2023-04-09T00:17:42;37.05;;;19.42;;
75419;SDS011;63998;52.488;13.428;2023-04-09T00:20:07;44.50;;;23.13;;
75419;SDS011;63998;52.488;13.428;2023-04-09T00:22:33;33.30;;;17.35;;
75419;SDS011;63998;52.488;13.428;2023-04-09T00:25:01;31.85;;;17.75;;
75419;SDS011;63998;52.488;13.428;2023-04-09T00:27:26;28.30;;;15.65;;
75419;SDS011;63998;52.488;13.428;2023-04-09T00:29:54;28.27;;;15.40;;
75419;SDS011;63998;52.488;13.428;2023-04-09T00:32:20;29.65;;;15.55;;
75419;SDS011;63998;52.488;13.428;2023-04-09T00:34:45;28.73;;;15.25;;
75419;SDS011;63998;52.488;13.428;2023-04-09T00:37:11;27.55;;;15.48;;
75419;SDS011;63998;52.488;13.428;2023-04-09T00:39:36;30.98;;;16.48;;
75419;SDS011;63998;52.488;13.428;2023-04-09T00:42:01;29.60;;;15.88;;
75419;SDS011;63998;52.488;13.428;2023-04-09T00:44:32;26.73;;;14.88;;
75419;SDS011;63998;52.488;13.428;2023-04-09T00:46:57;28.97;;;15.77;;
75419;SDS011;63998;52.488;13.428;2023-04-09T00:49:24;29.73;;;15.05;;
75419;SDS011;63998;52.488;13.428;2023-04-09T00:51:52;26.10;;;15.30;;
75419;SDS011;63998;52.488;13.428;2023-04-09T00:54:18;28.90;;;15.38;;
75419;SDS011;63998;52.488;13.428;2023-04-09T00:56:43;25.60;;;14.38;;
75419;SDS011;63998;52.488;13.428;2023-04-09T00:59:09;26.35;;;15.02;;
75419;SDS011;63998;52.488;13.428;2023-04-09T01:01:37;30.88;;;15.25;;
75419;SDS011;63998;52.488;13.428;2023-04-09T01:04:03;27.40;;;15.98;;
75419;SDS011;63998;52.488;13.428;2023-04-09T01:06:41;29.80;;;16.08;;
75419;SDS011;63998;52.488;13.428;2023-04-09T01:09:17;27.88;;;14.63;;
75419;SDS011;63998;52.488;13.428;2023-04-09T01:14:28;26.23;;;14.25;;
75419;SDS011;63998;52.488;13.428;2023-04-09T01:17:04;26.00;;;15.48;;
75419;SDS011;63998;52.488;13.428;2023-04-09T01:19:42;26.45;;;14.38;;
75419;SDS011;63998;52.488;13.428;2023-04-09T01:28:13;28.23;;;14.48;;
75419;SDS011;63998;52.488;13.428;2023-04-09T01:33:19;28.70;;;15.23;;
75419;SDS011;63998;52.488;13.428;2023-04-09T01:35:45;29.42;;;16.27;;
75419;SDS011;63998;52.488;13.428;2023-04-09T01:38:13;29.23;;;15.60;;
75419;SDS011;63998;52.488;13.428;2023-04-09T01:40:40;28.80;;;14.70;;
75419;SDS011;63998;52.488;13.428;2023-04-09T01:43:08;29.17;;;15.60;;
75419;SDS011;63998;52.488;13.428;2023-04-09T01:45:36;29.30;;;15.90;;
75419;SDS011;63998;52.488;13.428;2023-04-09T01:48:02;30.98;;;16.58;;
75419;SDS011;63998;52.488;13.428;2023-04-09T01:50:28;30.70;;;16.33;;
75419;SDS011;63998;52.488;13.428;2023-04-09T01:52:56;32.17;;;16.50;;
75419;SDS011;63998;52.488;13.428;2023-04-09T01:55:23;31.92;;;16.75;;
75419;SDS011;63998;52.488;13.428;2023-04-09T01:57:48;31.53;;;16.90;;
75419;SDS011;63998;52.488;13.428;2023-04-09T02:00:13;33.42;;;17.67;;
75419;SDS011;63998;52.488;13.428;2023-04-09T02:02:41;29.38;;;16.98;;
75419;SDS011;63998;52.488;13.428;2023-04-09T02:05:45;35.65;;;17.80;;
75419;SDS011;63998;52.488;13.428;2023-04-09T02:08:18;35.65;;;17.27;;
75419;SDS011;63998;52.488;13.428;2023-04-09T02:10:47;31.80;;;17.70;;
75419;SDS011;63998;52.488;13.428;2023-04-09T02:13:17;34.03;;;17.98;;
75419;SDS011;63998;52.488;13.428;2023-04-09T02:15:46;35.05;;;17.33;;
75419;SDS011;63998;52.488;13.428;2023-04-09T02:18:19;34.10;;;17.23;;
75419;SDS011;63998;52.488;13.428;2023-04-09T02:20:49;28.92;;;16.83;;
75419;SDS011;63998;52.488;13.428;2023-04-09T02:23:15;32.60;;;17.42;;
75419;SDS011;63998;52.488;13.428;2023-04-09T02:25:40;35.22;;;18.95;;
75419;SDS011;63998;52.488;13.428;2023-04-09T02:28:06;34.05;;;17.20;;
75419;SDS011;63998;52.488;13.428;2023-04-09T02:30:31;34.30;;;18.05;;
75419;SDS011;63998;52.488;13.428;2023-04-09T02:32:59;33.22;;;17.05;;
75419;SDS011;63998;52.488;13.428;2023-04-09T02:35:24;34.50;;;18.42;;
75419;SDS011;63998;52.488;13.428;2023-04-09T02:37:52;35.27;;;18.47;;
75419;SDS011;63998;52.488;13.428;2023-04-09T02:40:17;33.65;;;17.85;;
75419;SDS011;63998;52.488;13.428;2023-04-09T02:42:45;34.47;;;17.92;;
75419;SDS011;63998;52.488;13.428;2023-04-09T02:45:10;33.25;;;18.05;;
75419;SDS011;63998;52.488;13.428;2023-04-09T02:47:38;32.38;;;17.33;;
75419;SDS011;63998;52.488;13.428;2023-04-09T02:50:04;31.57;;;17.67;;
75419;SDS011;63998;52.488;13.428;2023-04-09T02:52:30;33.55;;;17.67;;
75419;SDS011;63998;52.488;13.428;2023-04-09T02:54:55;29.88;;;17.25;;
75419;SDS011;63998;52.488;13.428;2023-04-09T02:57:20;33.13;;;17.83;;
75419;SDS011;63998;52.488;13.428;2023-04-09T02:59:46;32.03;;;17.00;;
75419;SDS011;63998;52.488;13.428;2023-04-09T03:02:13;31.15;;;17.10;;
75419;SDS011;63998;52.488;13.428;2023-04-09T03:04:39;32.42;;;17.92;;
75419;SDS011;63998;52.488;13.428;2023-04-09T03:07:09;35.70;;;18.90;;
75419;SDS011;63998;52.488;13.428;2023-04-09T03:09:36;36.22;;;18.85;;
75419;SDS011;63998;52.488;13.428;2023-04-09T03:12:02;36.33;;;19.02;;
75419;SDS011;63998;52.488;13.428;2023-04-09T03:14:27;32.05;;;17.67;;
75419;SDS011;63998;52.488;13.428;2023-04-09T03:16:53;34.03;;;18.07;;
75419;SDS011;63998;52.488;13.428;2023-04-09T03:19:23;32.55;;;18.40;;
75419;SDS011;63998;52.488;13.428;2023-04-09T03:21:49;34.63;;;17.58;;
75419;SDS011;63998;52.488;13.428;2023-04-09T03:24:15;31.80;;;17.42;;
75419;SDS011;63998;52.488;13.428;2023-04-09T03:26:43;34.35;;;17.10;;
75419;SDS011;63998;52.488;13.428;2023-04-09T03:29:08;32.42;;;17.38;;
75419;SDS011;63998;52.488;13.428;2023-04-09T03:31:36;32.47;;;16.30;;
75419;SDS011;63998;52.488;13.428;2023-04-09T03:34:01;31.15;;;16.27;;
75419;SDS011;63998;52.488;13.428;2023-04-09T03:36:29;32.25;;;17.48;;
75419;SDS011;63998;52.488;13.428;2023-04-09T03:38:55;31.80;;;16.27;;
75419;SDS011;63998;52.488;13.428;2023-04-09T03:41:20;36.25;;;18.10;;
75419;SDS011;63998;52.488;13.428;2023-04-09T03:43:45;36.20;;;17.60;;
75419;SDS011;63998;52.488;13.428;2023-04-09T03:46:14;29.90;;;16.80;;
75419;SDS011;63998;52.488;13.428;2023-04-09T03:48:42;31.80;;;16.27;;
75419;SDS011;63998;52.488;13.428;2023-04-09T03:51:13;28.42;;;16.23;;
75419;SDS011;63998;52.488;13.428;2023-04-09T03:53:41;30.20;;;15.75;;
75419;SDS011;63998;52.488;13.428;2023-04-09T03:56:12;31.15;;;16.98;;
75419;SDS011;63998;52.488;13.428;2023-04-09T03:58:37;33.60;;;16.75;;
75419;SDS011;63998;52.488;13.428;2023-04-09T04:01:02;32.40;;;17.30;;
75419;SDS011;63998;52.488;13.428;2023-04-09T04:03:30;32.60;;;16.55;;
75419;SDS011;63998;52.488;13.428;2023-04-09T04:05:59;34.00;;;17.23;;
75419;SDS011;63998;52.488;13.428;2023-04-09T04:08:26;30.30;;;17.02;;
75419;SDS011;63998;52.488;13.428;2023-04-09T04:10:51;33.00;;;18.83;;
75419;SDS011;63998;52.488;13.428;2023-04-09T04:13:17;37.00;;;19.10;;
75419;SDS011;63998;52.488;13.428;2023-04-09T04:15:45;37.42;;;18.77;;
75419;SDS011;63998;52.488;13.428;2023-04-09T04:18:12;31.50;;;17.35;;
75419;SDS011;63998;52.488;13.428;2023-04-09T04:20:38;34.47;;;17.70;;
75419;SDS011;63998;52.488;13.428;2023-04-09T04:23:06;36.85;;;17.17;;
75419;SDS011;63998;52.488;13.428;2023-04-09T04:25:32;34.03;;;17.58;;
75419;SDS011;63998;52.488;13.428;2023-04-09T04:27:59;33.45;;;16.55;;
75419;SDS011;63998;52.488;13.428;2023-04-09T04:30:27;31.45;;;16.42;;
75419;SDS011;63998;52.488;13.428;2023-04-09T04:32:52;30.45;;;15.95;;
75419;SDS011;63998;52.488;13.428;2023-04-09T04:35:17;30.70;;;17.73;;
75419;SDS011;63998;52.488;13.428;2023-04-09T04:37:43;31.83;;;17.10;;
75419;SDS011;63998;52.488;13.428;2023-04-09T04:40:08;31.50;;;17.73;;
75419;SDS011;63998;52.488;13.428;2023-04-09T04:42:34;32.80;;;17.48;;
75419;SDS011;63998;52.488;13.428;2023-04-09T04:44:59;29.58;;;15.38;;
75419;SDS011;63998;52.488;13.428;2023-04-09T04:47:24;34.43;;;16.03;;
75419;SDS011;63998;52.488;13.428;2023-04-09T04:49:50;31.45;;;16.92;;
75419;SDS011;63998;52.488;13.428;2023-04-09T04:52:15;34.95;;;16.20;;
75419;SDS011;63998;52.488;13.428;2023-04-09T04:54:41;29.27;;;15.75;;
75419;SDS011;63998;52.488;13.428;2023-04-09T04:57:06;38.22;;;16.55;;
75419;SDS011;63998;52.488;13.428;2023-04-09T04:59:35;33.30;;;16.37;;
75419;SDS011;63998;52.488;13.428;2023-04-09T05:02:01;35.20;;;16.17;;
75419;SDS011;63998;52.488;13.428;2023-04-09T05:04:26;44.50;;;18.40;;
75419;SDS011;63998;52.488;13.428;2023-04-09T05:06:51;44.30;;;17.13;;
75419;SDS011;63998;52.488;13.428;2023-04-09T05:09:17;47.80;;;17.70;;
75419;SDS011;63998;52.488;13.428;2023-04-09T05:11:45;42.63;;;17.20;;
75419;SDS011;63998;52.488;13.428;2023-04-09T05:14:10;46.30;;;16.47;;
75419;SDS011;63998;52.488;13.428;2023-04-09T05:16:37;46.42;;;18.05;;
75419;SDS011;63998;52.488;13.428;2023-04-09T05:19:02;45.50;;;18.50;;
75419;SDS011;63998;52.488;13.428;2023-04-09T05:21:30;45.53;;;17.25;;
75419;SDS011;63998;52.488;13.428;2023-04-09T05:23:55;39.03;;;16.75;;
75419;SDS011;63998;52.488;13.428;2023-04-09T05:26:25;44.83;;;19.02;;
75419;SDS011;63998;52.488;13.428;2023-04-09T05:28:51;39.15;;;18.17;;
75419;SDS011;63998;52.488;13.428;2023-04-09T05:31:17;37.15;;;16.52;;
75419;SDS011;63998;52.488;13.428;2023-04-09T05:33:44;41.85;;;17.65;;
75419;SDS011;63998;52.488;13.428;2023-04-09T05:36:16;45.45;;;17.70;;
75419;SDS011;63998;52.488;13.428;2023-04-09T05:38:46;42.80;;;17.48;;
75419;SDS011;63998;52.488;13.428;2023-04-09T05:41:12;50.85;;;17.83;;
75419;SDS011;63998;52.488;13.428;2023-04-09T05:43:37;59.60;;;17.77;;
75419;SDS011;63998;52.488;13.428;2023-04-09T05:46:06;36.92;;;17.00;;
75419;SDS011;63998;52.488;13.428;2023-04-09T05:48:33;41.22;;;17.83;;
75419;SDS011;63998;52.488;13.428;2023-04-09T05:51:01;58.40;;;17.40;;
75419;SDS011;63998;52.488;13.428;2023-04-09T05:53:26;34.15;;;16.45;;
75419;SDS011;63998;52.488;13.428;2023-04-09T05:55:52;37.05;;;16.70;;
75419;SDS011;63998;52.488;13.428;2023-04-09T05:58:19;35.58;;;18.27;;
75419;SDS011;63998;52.488;13.428;2023-04-09T06:00:45;37.72;;;16.60;;
75419;SDS011;63998;52.488;13.428;2023-04-09T06:03:10;38.13;;;19.98;;
75419;SDS011;63998;52.488;13.428;2023-04-09T06:05:35;41.03;;;18.03;;
75419;SDS011;63998;52.488;13.428;2023-04-09T06:08:01;37.88;;;17.25;;
75419;SDS011;63998;52.488;13.428;2023-04-09T06:10:26;37.47;;;17.27;;
75419;SDS011;63998;52.488;13.428;2023-04-09T06:12:52;36.15;;;16.70;;
75419;SDS011;63998;52.488;13.428;2023-04-09T06:15:19;34.45;;;16.48;;
75419;SDS011;63998;52.488;13.428;2023-04-09T06:17:49;37.75;;;17.38;;
75419;SDS011;63998;52.488;13.428;2023-04-09T06:20:14;40.10;;;17.15;;
75419;SDS011;63998;52.488;13.428;2023-04-09T06:22:40;31.83;;;16.23;;
75419;SDS011;63998;52.488;13.428;2023-04-09T06:25:05;40.70;;;17.23;;
75419;SDS011;63998;52.488;13.428;2023-04-09T06:27:31;42.47;;;20.55;;
75419;SDS011;63998;52.488;13.428;2023-04-09T06:29:59;42.63;;;19.48;;
75419;SDS011;63998;52.488;13.428;2023-04-09T06:32:24;38.50;;;18.13;;
75419;SDS011;63998;52.488;13.428;2023-04-09T06:34:49;39.22;;;18.77;;
75419;SDS011;63998;52.488;13.428;2023-04-09T06:37:15;39.77;;;19.20;;
75419;SDS011;63998;52.488;13.428;2023-04-09T06:39:42;39.17;;;18.83;;
75419;SDS011;63998;52.488;13.428;2023-04-09T06:42:10;40.65;;;20.20;;
75419;SDS011;63998;52.488;13.428;2023-04-09T06:44:38;40.63;;;18.40;;
75419;SDS011;63998;52.488;13.428;2023-04-09T06:47:03;39.10;;;18.90;;
75419;SDS011;63998;52.488;13.428;2023-04-09T06:49:32;39.33;;;19.02;;
75419;SDS011;63998;52.488;13.428;2023-04-09T06:52:00;40.40;;;19.08;;
75419;SDS011;63998;52.488;13.428;2023-04-09T06:54:26;38.25;;;19.08;;
75419;SDS011;63998;52.488;13.428;2023-04-09T06:56:53;38.55;;;17.65;;
75419;SDS011;63998;52.488;13.428;2023-04-09T06:59:19;39.60;;;19.10;;
75419;SDS011;63998;52.488;13.428;2023-04-09T07:01:46;39.20;;;18.67;;
75419;SDS011;63998;52.488;13.428;2023-04-09T07:04:12;43.88;;;19.25;;
75419;SDS011;63998;52.488;13.428;2023-04-09T07:06:37;44.13;;;19.40;;
75419;SDS011;63998;52.488;13.428;2023-04-09T07:09:04;35.75;;;19.08;;
75419;SDS011;63998;52.488;13.428;2023-04-09T07:11:31;37.15;;;18.13;;
75419;SDS011;63998;52.488;13.428;2023-04-09T07:13:57;48.83;;;22.27;;
75419;SDS011;63998;52.488;13.428;2023-04-09T07:16:23;41.05;;;19.17;;
75419;SDS011;63998;52.488;13.428;2023-04-09T07:18:48;44.08;;;20.70;;
75419;SDS011;63998;52.488;13.428;2023-04-09T07:21:14;47.20;;;21.98;;
75419;SDS011;63998;52.488;13.428;2023-04-09T07:26:10;37.13;;;19.30;;
75419;SDS011;63998;52.488;13.428;2023-04-09T07:28:36;46.22;;;23.92;;
75419;SDS011;63998;52.488;13.428;2023-04-09T07:31:01;43.72;;;20.88;;
75419;SDS011;63998;52.488;13.428;2023-04-09T07:33:27;37.40;;;19.85;;
75419;SDS011;63998;52.488;13.428;2023-04-09T07:35:54;39.05;;;19.42;;
75419;SDS011;63998;52.488;13.428;2023-04-09T07:38:22;36.58;;;18.77;;
75419;SDS011;63998;52.488;13.428;2023-04-09T07:40:50;43.83;;;21.77;;
75419;SDS011;63998;52.488;13.428;2023-04-09T07:43:17;38.30;;;19.48;;
75419;SDS011;63998;52.488;13.428;2023-04-09T07:45:43;39.67;;;18.80;;
75419;SDS011;63998;52.488;13.428;2023-04-09T07:48:08;36.13;;;17.80;;
75419;SDS011;63998;52.488;13.428;2023-04-09T07:50:33;35.08;;;18.35;;
75419;SDS011;63998;52.488;13.428;2023-04-09T07:52:59;33.13;;;17.97;;
75419;SDS011;63998;52.488;13.428;2023-04-09T07:55:27;31.85;;;17.35;;
75419;SDS011;63998;52.488;13.428;2023-04-09T07:57:52;29.88;;;16.52;;
75419;SDS011;63998;52.488;13.428;2023-04-09T08:00:20;32.63;;;18.23;;
75419;SDS011;63998;52.488;13.428;2023-04-09T08:05:13;28.60;;;15.33;;
75419;SDS011;63998;52.488;13.428;2023-04-09T08:07:39;33.25;;;16.90;;
75419;SDS011;63998;52.488;13.428;2023-04-09T08:10:04;33.85;;;17.95;;
75419;SDS011;63998;52.488;13.428;2023-04-09T08:12:31;31.38;;;16.27;;
75419;SDS011;63998;52.488;13.428;2023-04-09T08:14:56;36.43;;;18.33;;
75419;SDS011;63998;52.488;13.428;2023-04-09T08:17:21;30.93;;;16.10;;
75419;SDS011;63998;52.488;13.428;2023-04-09T08:19:51;36.25;;;17.70;;
75419;SDS011;63998;52.488;13.428;2023-04-09T08:22:19;29.25;;;15.82;;
75419;SDS011;63998;52.488;13.428;2023-04-09T08:24:49;34.15;;;17.00;;
75419;SDS011;63998;52.488;13.428;2023-04-09T08:27:15;32.55;;;16.67;;
75419;SDS011;63998;52.488;13.428;2023-04-09T08:29:41;31.05;;;16.20;;
75419;SDS011;63998;52.488;13.428;2023-04-09T08:32:07;31.52;;;16.75;;
75419;SDS011;63998;52.488;13.428;2023-04-09T08:34:35;34.65;;;18.17;;
75419;SDS011;63998;52.488;13.428;2023-04-09T08:37:00;34.58;;;17.77;;
75419;SDS011;63998;52.488;13.428;2023-04-09T08:39:26;33.53;;;16.83;;
75419;SDS011;63998;52.488;13.428;2023-04-09T08:41:51;36.00;;;18.47;;
75419;SDS011;63998;52.488;13.428;2023-04-09T08:44:23;31.52;;;17.75;;
75419;SDS011;63998;52.488;13.428;2023-04-09T08:46:50;35.58;;;17.70;;
75419;SDS011;63998;52.488;13.428;2023-04-09T08:49:16;40.55;;;18.88;;
75419;SDS011;63998;52.488;13.428;2023-04-09T08:51:44;32.13;;;17.33;;
75419;SDS011;63998;52.488;13.428;2023-04-09T08:54:13;32.75;;;18.20;;
75419;SDS011;63998;52.488;13.428;2023-04-09T08:56:39;32.88;;;18.08;;
75419;SDS011;63998;52.488;13.428;2023-04-09T08:59:05;35.57;;;18.37;;
75419;SDS011;63998;52.488;13.428;2023-04-09T09:01:30;33.78;;;17.95;;
75419;SDS011;63998;52.488;13.428;2023-04-09T09:06:28;34.63;;;18.77;;
75419;SDS011;63998;52.488;13.428;2023-04-09T09:11:39;35.00;;;18.13;;
75419;SDS011;63998;52.488;13.428;2023-04-09T09:14:08;37.40;;;17.45;;
75419;SDS011;63998;52.488;13.428;2023-04-09T09:16:37;35.42;;;18.00;;
75419;SDS011;63998;52.488;13.428;2023-04-09T09:19:06;35.75;;;18.90;;
75419;SDS011;63998;52.488;13.428;2023-04-09T09:21:33;32.55;;;17.50;;
75419;SDS011;63998;52.488;13.428;2023-04-09T09:24:02;34.58;;;18.10;;
75419;SDS011;63998;52.488;13.428;2023-04-09T09:26:41;29.83;;;16.48;;
75419;SDS011;63998;52.488;13.428;2023-04-09T09:29:07;39.35;;;19.88;;
75419;SDS011;63998;52.488;13.428;2023-04-09T09:31:33;32.83;;;17.27;;
75419;SDS011;63998;52.488;13.428;2023-04-09T09:34:17;32.15;;;16.35;;
75419;SDS011;63998;52.488;13.428;2023-04-09T09:36:43;31.20;;;17.58;;
75419;SDS011;63998;52.488;13.428;2023-04-09T09:39:10;32.40;;;17.17;;
75419;SDS011;63998;52.488;13.428;2023-04-09T09:41:42;34.85;;;19.98;;
75419;SDS011;63998;52.488;13.428;2023-04-09T09:44:09;32.78;;;17.85;;
75419;SDS011;63998;52.488;13.428;2023-04-09T09:46:54;31.40;;;18.00;;
75419;SDS011;63998;52.488;13.428;2023-04-09T09:49:21;34.65;;;18.67;;
75419;SDS011;63998;52.488;13.428;2023-04-09T09:51:46;29.77;;;16.60;;
75419;SDS011;63998;52.488;13.428;2023-04-09T09:54:12;31.85;;;18.35;;
75419;SDS011;63998;52.488;13.428;2023-04-09T09:56:41;32.10;;;17.75;;
75419;SDS011;63998;52.488;13.428;2023-04-09T10:01:42;31.13;;;17.80;;
75419;SDS011;63998;52.488;13.428;2023-04-09T10:04:13;32.20;;;16.77;;
75419;SDS011;63998;52.488;13.428;2023-04-09T10:06:41;30.98;;;18.55;;
75419;SDS011;63998;52.488;13.428;2023-04-09T10:09:07;31.05;;;16.42;;
75419;SDS011;63998;52.488;13.428;2023-04-09T10:14:02;35.35;;;19.90;;
75419;SDS011;63998;52.488;13.428;2023-04-09T10:16:29;29.35;;;17.00;;
75419;SDS011;63998;52.488;13.428;2023-04-09T10:18:56;29.00;;;16.50;;
75419;SDS011;63998;52.488;13.428;2023-04-09T10:26:40;28.13;;;15.43;;
75419;SDS011;63998;52.488;13.428;2023-04-09T10:29:07;24.23;;;14.43;;
75419;SDS011;63998;52.488;13.428;2023-04-09T10:34:25;37.53;;;20.13;;
75419;SDS011;63998;52.488;13.428;2023-04-09T10:36:54;26.23;;;14.80;;
75419;SDS011;63998;52.488;13.428;2023-04-09T10:39:24;25.63;;;14.30;;
75419;SDS011;63998;52.488;13.428;2023-04-09T10:41:51;28.20;;;16.52;;
75419;SDS011;63998;52.488;13.428;2023-04-09T10:44:19;27.10;;;15.57;;
75419;SDS011;63998;52.488;13.428;2023-04-09T10:46:48;29.70;;;15.60;;
75419;SDS011;63998;52.488;13.428;2023-04-09T10:49:19;27.95;;;14.88;;
75419;SDS011;63998;52.488;13.428;2023-04-09T10:52:07;25.08;;;15.15;;
75419;SDS011;63998;52.488;13.428;2023-04-09T10:59:36;25.63;;;14.05;;
75419;SDS011;63998;52.488;13.428;2023-04-09T11:02:05;21.58;;;14.23;;
75419;SDS011;63998;52.488;13.428;2023-04-09T11:04:38;23.70;;;13.95;;
75419;SDS011;63998;52.488;13.428;2023-04-09T11:07:16;26.02;;;14.85;;
75419;SDS011;63998;52.488;13.428;2023-04-09T11:09:43;22.92;;;14.07;;
75419;SDS011;63998;52.488;13.428;2023-04-09T11:12:11;24.92;;;14.27;;
75419;SDS011;63998;52.488;13.428;2023-04-09T11:14:36;23.20;;;14.43;;
75419;SDS011;63998;52.488;13.428;2023-04-09T11:17:02;21.43;;;13.30;;
75419;SDS011;63998;52.488;13.428;2023-04-09T11:19:34;23.30;;;14.00;;
75419;SDS011;63998;52.488;13.428;2023-04-09T11:22:02;21.30;;;12.85;;
75419;SDS011;63998;52.488;13.428;2023-04-09T11:24:39;23.02;;;12.90;;
75419;SDS011;63998;52.488;13.428;2023-04-09T11:27:06;22.30;;;13.18;;
75419;SDS011;63998;52.488;13.428;2023-04-09T11:29:31;21.57;;;13.37;;
75419;SDS011;63998;52.488;13.428;2023-04-09T11:31:59;110.95;;;57.13;;
75419;SDS011;63998;52.488;13.428;2023-04-09T11:34:27;26.33;;;13.27;;
75419;SDS011;63998;52.488;13.428;2023-04-09T11:36:55;21.05;;;12.82;;
75419;SDS011;63998;52.488;13.428;2023-04-09T11:39:21;20.70;;;12.90;;
75419;SDS011;63998;52.488;13.428;2023-04-09T11:41:46;20.50;;;13.23;;
75419;SDS011;63998;52.488;13.428;2023-04-09T11:44:11;22.05;;;13.77;;
75419;SDS011;63998;52.488;13.428;2023-04-09T11:46:37;22.02;;;12.93;;
75419;SDS011;63998;52.488;13.428;2023-04-09T11:49:03;24.30;;;13.95;;
75419;SDS011;63998;52.488;13.428;2023-04-09T11:51:29;21.88;;;13.27;;
75419;SDS011;63998;52.488;13.428;2023-04-09T11:54:00;23.13;;;13.10;;
75419;SDS011;63998;52.488;13.428;2023-04-09T11:56:31;22.77;;;12.63;;
75419;SDS011;63998;52.488;13.428;2023-04-09T11:58:59;20.15;;;12.02;;
75419;SDS011;63998;52.488;13.428;2023-04-09T12:01:29;20.50;;;12.07;;
75419;SDS011;63998;52.488;13.428;2023-04-09T12:03:58;19.02;;;12.25;;
75419;SDS011;63998;52.488;13.428;2023-04-09T12:06:24;21.05;;;12.35;;
75419;SDS011;63998;52.488;13.428;2023-04-09T12:08:54;22.23;;;13.45;;
75419;SDS011;63998;52.488;13.428;2023-04-09T12:11:20;20.33;;;12.55;;
75419;SDS011;63998;52.488;13.428;2023-04-09T12:14:01;23.95;;;14.52;;
75419;SDS011;63998;52.488;13.428;2023-04-09T12:16:33;22.55;;;13.02;;
75419;SDS011;63998;52.488;13.428;2023-04-09T12:19:02;19.38;;;12.20;;
75419;SDS011;63998;52.488;13.428;2023-04-09T12:21:45;18.38;;;12.07;;
75419;SDS011;63998;52.488;13.428;2023-04-09T12:24:17;20.33;;;13.75;;
75419;SDS011;63998;52.488;13.428;2023-04-09T12:26:44;19.73;;;13.65;;
75419;SDS011;63998;52.488;13.428;2023-04-09T12:29:10;19.70;;;13.65;;
75419;SDS011;63998;52.488;13.428;2023-04-09T12:31:35;20.38;;;13.35;;
75419;SDS011;63998;52.488;13.428;2023-04-09T12:34:01;20.42;;;13.27;;
75419;SDS011;63998;52.488;13.428;2023-04-09T12:36:26;20.88;;;13.60;;
75419;SDS011;63998;52.488;13.428;2023-04-09T12:38:52;20.52;;;14.13;;
75419;SDS011;63998;52.488;13.428;2023-04-09T12:41:17;26.70;;;17.90;;
75419;SDS011;63998;52.488;13.428;2023-04-09T12:43:42;21.80;;;13.88;;
75419;SDS011;63998;52.488;13.428;2023-04-09T12:46:11;17.48;;;13.50;;
75419;SDS011;63998;52.488;13.428;2023-04-09T12:48:39;19.70;;;13.48;;
75419;SDS011;63998;52.488;13.428;2023-04-09T12:51:07;18.05;;;12.35;;
75419;SDS011;63998;52.488;13.428;2023-04-09T12:53:32;20.67;;;14.02;;
75419;SDS011;63998;52.488;13.428;2023-04-09T12:55:58;22.17;;;14.77;;
75419;SDS011;63998;52.488;13.428;2023-04-09T12:58:25;20.70;;;13.67;;
75419;SDS011;63998;52.488;13.428;2023-04-09T13:00:51;20.10;;;14.20;;
75419;SDS011;63998;52.488;13.428;2023-04-09T13:03:18;20.42;;;13.85;;
75419;SDS011;63998;52.488;13.428;2023-04-09T13:05:43;21.38;;;14.75;;
75419;SDS011;63998;52.488;13.428;2023-04-09T13:10:37;23.07;;;14.50;;
75419;SDS011;63998;52.488;13.428;2023-04-09T13:13:05;21.35;;;13.93;;
75419;SDS011;63998;52.488;13.428;2023-04-09T13:15:35;22.23;;;14.77;;
75419;SDS011;63998;52.488;13.428;2023-04-09T13:18:09;21.13;;;14.18;;
75419;SDS011;63998;52.488;13.428;2023-04-09T13:20:35;21.17;;;14.32;;
75419;SDS011;63998;52.488;13.428;2023-04-09T13:23:01;22.35;;;13.68;;
75419;SDS011;63998;52.488;13.428;2023-04-09T13:25:27;19.83;;;14.50;;
75419;SDS011;63998;52.488;13.428;2023-04-09T13:27:52;17.58;;;13.48;;
75419;SDS011;63998;52.488;13.428;2023-04-09T13:30:17;19.20;;;13.93;;
75419;SDS011;63998;52.488;13.428;2023-04-09T13:32:43;18.87;;;13.97;;
75419;SDS011;63998;52.488;13.428;2023-04-09T13:35:08;20.17;;;13.63;;
75419;SDS011;63998;52.488;13.428;2023-04-09T13:37:38;19.90;;;14.50;;
75419;SDS011;63998;52.488;13.428;2023-04-09T13:40:06;19.92;;;13.43;;
75419;SDS011;63998;52.488;13.428;2023-04-09T13:42:35;20.20;;;13.93;;
75419;SDS011;63998;52.488;13.428;2023-04-09T13:45:01;19.85;;;13.80;;
75419;SDS011;63998;52.488;13.428;2023-04-09T13:47:27;25.15;;;16.83;;
75419;SDS011;63998;52.488;13.428;2023-04-09T13:49:52;26.23;;;16.87;;
75419;SDS011;63998;52.488;13.428;2023-04-09T13:52:18;23.60;;;17.10;;
75419;SDS011;63998;52.488;13.428;2023-04-09T13:54:45;21.80;;;14.27;;
75419;SDS011;63998;52.488;13.428;2023-04-09T13:57:11;27.80;;;19.52;;
75419;SDS011;63998;52.488;13.428;2023-04-09T13:59:36;19.08;;;13.25;;
75419;SDS011;63998;52.488;13.428;2023-04-09T14:02:02;17.35;;;12.00;;
75419;SDS011;63998;52.488;13.428;2023-04-09T14:04:28;19.30;;;13.48;;
75419;SDS011;63998;52.488;13.428;2023-04-09T14:06:53;22.15;;;15.55;;
75419;SDS011;63998;52.488;13.428;2023-04-09T14:09:21;21.75;;;14.23;;
75419;SDS011;63998;52.488;13.428;2023-04-09T14:14:13;18.25;;;13.38;;
75419;SDS011;63998;52.488;13.428;2023-04-09T14:16:38;17.75;;;13.00;;
75419;SDS011;63998;52.488;13.428;2023-04-09T14:19:04;17.92;;;12.77;;
75419;SDS011;63998;52.488;13.428;2023-04-09T14:21:30;18.10;;;12.50;;
75419;SDS011;63998;52.488;13.428;2023-04-09T14:23:56;18.63;;;12.50;;
75419;SDS011;63998;52.488;13.428;2023-04-09T14:26:21;19.88;;;14.13;;
75419;SDS011;63998;52.488;13.428;2023-04-09T14:28:47;20.58;;;13.90;;
75419;SDS011;63998;52.488;13.428;2023-04-09T14:31:15;21.73;;;15.55;;
75419;SDS011;63998;52.488;13.428;2023-04-09T14:33:45;19.27;;;13.52;;
75419;SDS011;63998;52.488;13.428;2023-04-09T14:36:10;20.15;;;13.60;;
75419;SDS011;63998;52.488;13.428;2023-04-09T14:38:36;21.37;;;15.83;;
75419;SDS011;63998;52.488;13.428;2023-04-09T14:41:03;20.67;;;13.65;;
75419;SDS011;63998;52.488;13.428;2023-04-09T14:45:56;17.97;;;13.23;;
75419;SDS011;63998;52.488;13.428;2023-04-09T14:48:22;18.38;;;13.05;;
75419;SDS011;63998;52.488;13.428;2023-04-09T14:50:47;26.33;;;15.75;;
75419;SDS011;63998;52.488;13.428;2023-04-09T14:53:15;25.27;;;15.80;;
75419;SDS011;63998;52.488;13.428;2023-04-09T14:55:41;19.85;;;13.00;;